Winston, Virginia
Current Conditions -  °F | °C
As of 9:35 AM on Thursday 30 Oct 2014 (Local Time) from KCJR Reporting Station
Overcast Overcast  
Wind Chill: 44°   Ceiling: 6500
Heat Index: 48°   Visibility: 10mi
Dew Point: 43°   Wind: 9mph
Humidity: 82%   Direction: 350°N
Pressure: 30.09"   Gusts: NA
Location:  38.467°N, 77.9818°W
Report Text: KCJR 301335Z AUTO 35008KT 10SM OVC065 09/06 A3009 RMK AO2
Loading
Personal Weather Stations






























Interactive Weather Map
Tropical Storm Tracking
New forecast layout! Learn more

10-Day Weather Forecast

Advertisements
Track Severe Weather on mobile